createdAt,value
2019-04-10T04:53:46.263Z,13.60
2019-04-10T04:56:17.952Z,12.68
2019-04-10T04:58:49.698Z,11.73
2019-04-10T05:01:21.683Z,11.25
2019-04-10T05:03:53.441Z,12.00
2019-04-10T05:06:26.547Z,11.93
2019-04-10T05:08:59.227Z,11.68
2019-04-10T05:11:30.860Z,10.80
2019-04-10T05:14:02.748Z,11.10
2019-04-10T05:16:35.179Z,12.78
2019-04-10T05:19:06.686Z,10.63
2019-04-10T05:21:38.515Z,10.72
2019-04-10T05:24:10.058Z,11.55
2019-04-10T05:26:42.722Z,11.83
2019-04-10T05:29:15.380Z,12.50
2019-04-10T05:31:46.878Z,12.00
2019-04-10T05:34:18.304Z,12.58
2019-04-10T05:36:51.134Z,11.50
2019-04-10T05:39:22.866Z,13.08
2019-04-10T05:41:54.855Z,12.40
2019-04-10T05:44:26.376Z,12.00
2019-04-10T05:46:57.998Z,11.68
2019-04-10T05:49:31.075Z,13.00
2019-04-10T05:52:04.120Z,12.63
2019-04-10T05:54:36.106Z,12.53
2019-04-10T05:57:08.356Z,11.53
2019-04-10T05:59:40.462Z,11.25
2019-04-10T06:02:11.960Z,17.85
2019-04-10T06:04:45.412Z,11.00
2019-04-10T06:07:17.160Z,11.55
2019-04-10T06:09:57.794Z,11.50
2019-04-10T06:12:22.691Z,12.23
2019-04-10T06:14:54.943Z,12.45
2019-04-10T06:20:57.359Z,13.32
2019-04-10T06:45:29.917Z,19.42
2019-04-10T06:54:20.973Z,16.15
2019-04-10T06:56:52.854Z,14.47
2019-04-10T06:59:25.824Z,12.73
2019-04-10T07:02:11.364Z,13.45
2019-04-10T07:59:35.562Z,14.85
2019-04-10T08:02:09.770Z,15.08
2019-04-10T08:09:12.531Z,13.83
2019-04-10T08:11:44.790Z,14.07
2019-04-10T08:53:48.854Z,8.28
2019-04-10T08:56:22.538Z,8.00
2019-04-10T08:58:55.042Z,17.82
2019-04-10T09:01:26.665Z,7.40
2019-04-10T09:03:59.355Z,9.45
2019-04-10T09:06:31.510Z,7.45
2019-04-10T09:09:03.516Z,7.85
2019-04-10T09:11:35.912Z,7.03
2019-04-10T09:14:08.569Z,7.95
2019-04-10T09:16:40.165Z,7.58
2019-04-10T09:19:12.035Z,10.45
2019-04-10T09:21:45.685Z,5.83
2019-04-10T09:24:17.524Z,6.20
2019-04-10T09:26:48.917Z,8.23
2019-04-10T09:29:23.185Z,7.25
2019-04-10T09:31:53.805Z,6.25
2019-04-10T09:34:25.674Z,11.25
2019-04-10T09:36:57.705Z,5.03
2019-04-10T09:39:31.795Z,7.55
2019-04-10T09:42:03.502Z,5.87
2019-04-10T09:44:35.996Z,6.33
2019-04-10T09:47:07.783Z,6.00
2019-04-10T09:49:43.695Z,6.30
2019-04-10T09:52:12.470Z,5.60
2019-04-10T09:54:46.658Z,4.95
2019-04-10T09:57:20.129Z,4.70
2019-04-10T09:59:52.641Z,5.65
2019-04-10T10:02:25.254Z,4.53
2019-04-10T10:04:57.782Z,6.42
2019-04-10T10:07:29.451Z,6.60
2019-04-10T10:10:02.330Z,5.72
2019-04-10T10:12:36.456Z,5.80
2019-04-10T10:15:09.470Z,5.53
2019-04-10T10:17:41.280Z,6.00
2019-04-10T10:20:13.850Z,5.47
2019-04-10T10:22:45.563Z,6.47
2019-04-10T10:25:17.417Z,6.60
2019-04-10T10:27:49.169Z,5.25
2019-04-10T10:30:23.269Z,5.45
2019-04-10T10:32:55.137Z,5.50
2019-04-10T10:35:27.280Z,5.53
2019-04-10T10:37:58.953Z,5.78
2019-04-10T10:40:30.516Z,5.78
2019-04-10T10:43:02.464Z,5.22
2019-04-10T10:45:36.660Z,5.58
2019-04-10T10:48:09.963Z,5.95
2019-04-10T10:50:41.663Z,6.65
2019-04-10T10:53:12.999Z,6.33
2019-04-10T10:55:45.502Z,6.30
2019-04-10T10:58:17.537Z,6.25
2019-04-10T11:00:50.149Z,6.45
2019-04-10T11:03:22.417Z,6.62
2019-04-10T11:05:54.913Z,5.95
2019-04-10T11:08:26.899Z,5.85
2019-04-10T11:10:59.383Z,6.12
2019-04-10T11:13:33.056Z,6.35
2019-04-10T11:16:07.376Z,5.65
2019-04-10T11:18:38.812Z,5.70
2019-04-10T11:21:12.403Z,6.12
2019-04-10T11:23:43.922Z,7.17
2019-04-10T11:26:20.228Z,5.80
2019-04-10T11:28:49.542Z,5.92
2019-04-10T11:31:21.206Z,7.58
2019-04-10T11:34:04.127Z,5.90
2019-04-10T11:36:36.206Z,5.97
2019-04-10T11:39:18.644Z,9.05
2019-04-10T11:41:43.386Z,7.85
2019-04-10T11:44:17.164Z,6.60
2019-04-10T11:46:49.524Z,10.95
2019-04-10T11:49:22.855Z,11.88
2019-04-10T11:51:59.216Z,11.25
2019-04-10T11:54:29.897Z,11.33
2019-04-10T11:57:04.224Z,10.88
2019-04-10T11:59:37.963Z,11.78
2019-04-10T12:02:10.119Z,11.40
2019-04-10T12:04:52.117Z,9.35
2019-04-10T12:07:49.135Z,9.23
2019-04-10T12:12:21.741Z,10.60
2019-04-10T12:14:54.216Z,9.05
